Tiempo atmosférico en la estación meteorológica de Ciudad Real, Ciudad Real (628 m.)

Fecha
DESCASC
Temp. máxima en grados centígrados (hora)
DESCASC
Temp. mínima en grados centígrados (hora)
DESCASC
Temp. media en grados centígrados
DESCASC
Racha de viento máxima en m/sg (hora)
DESCASC
Velocidad máxima media en intervalos de 10 minutos(hora)
DESCASC
Precipitaciones diarias en mm
DESCASC
Precipitaciones de 00:00 a 06:00 en mm
DESCASC
Precipitaciones de 06:00 a 12:00 en mm
DESCASC
Precipitaciones de 12:00 a 18:00 en mm
DESCASC
Precipitaciones de 18:00 a 24:00 en mm
DESCASC
22-10-2017 22 (15:40) 11 (06:40) 16.5 5.83 (15:00) 3.06 (14:40) 0 0 0 0 0
21-10-2017 23 (15:30) 13.6 (03:00) 18.3 7.22 (16:20) 3.61 (16:20) 0 0 0 0 0
20-10-2017 21.1 (16:40) 11.8 (07:20) 16.5 7.22 (16:40) 3.61 (03:00) 0 0 0 0 0
19-10-2017 18.9 (15:30) 7.6 (00:00) 13.2 8.89 (18:10) 3.89 (16:50) 0 0 0 0 0
18-10-2017 16.8 (00:30) 11.3 (00:00) 14 10 (07:10) 4.17 (07:10) 35.6 2.6 26.4 6.6 0
17-10-2017 23.5 (14:20) 11.5 (00:00) 17.5 11.11 (16:30) 5.28 (16:40) 0.2 0 0 0.2 0
16-10-2017 28.4 (16:00) 12.2 (00:00) 20.3 5.28 (18:40) 3.33 (21:20) 0 0 0 0 0
15-10-2017 30 (15:50) 13.7 (00:00) 21.8 6.11 (15:40) 3.33 (15:40) 0 0 0 0 0
14-10-2017 30.9 (15:20) 12.6 (00:00) 21.8 5 (14:20) 2.78 (18:00) 0 0 0 0 0
13-10-2017 31.5 (15:30) 13.4 (00:00) 22.4 7.5 (18:20) 3.61 (18:20) 0 0 0 0 0
12-10-2017 31.3 (15:30) 13.1 (00:00) 22.2 8.61 (17:20) 3.89 (18:00) 0 0 0 0 0
11-10-2017 30 (15:40) 11 (00:00) 20.5 7.5 (17:20) 3.33 (16:40) 0 0 0 0 0
10-10-2017 29.8 (15:10) 10.2 (00:00) 20 4.44 (16:20) 2.5 (16:10) 0 0 0 0 0
09-10-2017 30 (15:30) 11.3 (00:00) 20.7 4.44 (15:40) 2.5 (15:40) 0 0 0 0 0
08-10-2017 27.8 (15:50) 12.1 (00:00) 19.9 5 (00:20) 3.06 (00:20) 0 0 0 0 0
07-10-2017 27.6 (16:10) 12.1 (00:00) 19.9 7.22 (12:50) 3.61 (13:10) 0 0 0 0 0
06-10-2017 31.7 (15:20) 14.5 (00:00) 23.1 8.33 (15:20) 3.06 (15:00) 0 0 0 0 0
05-10-2017 30.5 (15:30) 14.2 (00:00) 22.3 6.39 (15:00) 3.33 (16:10) 0 0 0 0 0
04-10-2017 31.4 (15:50) 16 (00:00) 23.7 6.11 (23:00) 3.61 (22:50) 0 0 0 0 0
03-10-2017 30.9 (16:10) 14.4 (00:00) 22.6 4.17 (15:00) 2.5 (09:40) 0 0 0 0 0
02-10-2017 29.1 (15:50) 15.1 (00:00) 22.1 9.72 (14:20) 5 (12:50) 0 0 0 0 0
01-10-2017 27.7 (15:50) 16.1 (00:00) 21.9 8.33 (15:40) 4.17 (15:20) 0 0 0 0 0
30-09-2017 30.1 (15:20) 13.9 (00:00) 22 7.22 (16:30) 3.33 (19:40) 0 0 0 0 0
29-09-2017 30 (15:40) 14.3 (00:00) 22.2 5.83 (17:20) 3.06 (18:10) 0 0 0 0 0
28-09-2017 29.2 (16:30) 14.7 (00:00) 22 6.39 (17:50) 3.61 (17:50) 0 0 0 0 0
27-09-2017 28.3 (15:20) 12.6 (00:00) 20.4 6.67 (16:20) 3.06 (16:20) 0 0 0 0 0
26-09-2017 28.2 (15:20) 12 (00:00) 20.1 5.83 (10:30) 3.61 (10:30) 0 0 0 0 0
25-09-2017 29.5 (15:50) 17.2 (00:00) 23.4 10.56 (18:00) 5.28 (16:10) 0 0 0 0 0
24-09-2017 31.4 (15:20) 14 (00:00) 22.7 7.5 (17:00) 3.06 (17:00) 0 0 0 0 0
23-09-2017 29.4 (16:00) 14.2 (00:00) 21.8 6.39 (01:20) 3.33 (01:50) 0 0 0 0 0

Gráficas

Temp. máximas Temp. mínimas Temp. medias Precipitaciones Rachas de viento máximas Velocidades máximas media en intervalos de 10 minutos

Datos horarios

Fecha y hora oficial Temperatura (ºC) Velocidad del viento (km/h) Dirección del viento Racha (km/h) Dirección de racha Precipitación (mm) Presión (hPa) Tendencia (hPa) Humedad (%)
2017-10-22 23:00:00 13.5 5 Nordeste 9 Nordeste 0 952.7 0.9 69
2017-10-22 22:00:00 14.6 5 Nordeste 9 Nordeste 0 952.6 1.2 66
2017-10-22 21:00:00 15.5 4 Nordeste 7 Nordeste 0 952.2 0.9 63
2017-10-22 20:00:00 17.2 5 Nordeste 9 Nordeste 0 951.8 0.3 56
2017-10-22 19:00:00 19.1 4 Este 12 Este 0 951.4 -0.5 47
2017-10-22 18:00:00 20 6 Este 16 Nordeste 0 951.3 -0.9 45
2017-10-22 17:00:00 20.7 4 Nordeste 14 Nordeste 0 951.5 -1.6 44
2017-10-22 16:00:00 21.7 5 Este 19 Este 0 951.9 -1.9 42
2017-10-22 15:00:00 21.5 9 Este 21 Este 0 952.2 -1.6 44
2017-10-22 14:00:00 20.7 8 Este 16 Nordeste 0 953.1 -0.8 48
2017-10-22 13:00:00 19.5 10 Este 15 Nordeste 0 953.8 0.2 49
2017-10-22 12:00:00 18 6 Sudeste 9 Sudeste 0 953.8 1.2 54
2017-10-22 11:00:00 15.3 6 Este 10 Este 0 953.9 1.4 61
2017-10-22 10:00:00 12 5 Nordeste 10 Nordeste 0 953.6 1.1 72
2017-10-22 09:00:00 11 3 Nordeste 7 Nordeste 0 952.6 0.4 77
2017-10-22 08:00:00 11.7 3 Nordeste 6 Nordeste 0 952.5 0.5 73
2017-10-22 07:00:00 11.1 3 Nordeste 6 Nordeste 0 952.5 0.3 75
2017-10-22 06:00:00 11.6 3 Nordeste 8 Norte 0 952.2 -0.4 72
2017-10-22 05:00:00 12.2 4 Nordeste 10 Norte 0 952 -0.4 71
2017-10-22 04:00:00 12.6 4 Nordeste 13 Nordeste 0 952.2 0 75
2017-10-22 03:00:00 13.4 8 Nordeste 14 Nordeste 0 952.6 0.6 73
2017-10-22 02:00:00 14.4 7 Norte 14 Nordeste 0 952.4 0.7 70
2017-10-22 01:00:00 15.2 2 Noroeste 5 Oeste 0 952.2 0.9 87
2017-10-22 00:00:00 15.9 3 Oeste 7 Noroeste 0 952 0.7 84
2017-10-21 23:00:00 16.7 3 Noroeste 9 Oeste 0 951.7 1 80
2017-10-21 22:00:00 17.5 3 Noroeste 12 Oeste 0 951.3 1.1 75
2017-10-21 21:00:00 18.6 7 Noroeste 17 Noroeste 0 951.3 1.2 70
2017-10-21 20:00:00 19.8 10 Noroeste 19 Noroeste 0 950.7 0.5 63
2017-10-21 19:00:00 21.2 11 Noroeste 23 Norte 0 950.2 -0.2 54
2017-10-21 18:00:00 22.5 10 Noroeste 24 Oeste 0 950.1 -0.7 53
2017-10-21 17:00:00 22.8 12 Noroeste 26 Noroeste 0 950.2 -1.4 50
2017-10-21 16:00:00 22.7 10 Noroeste 20 Noroeste 0 950.4 -2.1 49
2017-10-21 15:00:00 22.1 5 Oeste 17 Noroeste 0 950.8 -1.6 57
2017-10-21 14:00:00 20.9 8 Oeste 18 Noroeste 0 951.6 -0.8 67
2017-10-21 13:00:00 20.2 7 Noroeste 19 Noroeste 0 952.5 0.7 74
2017-10-21 12:00:00 19.6 7 Noroeste 19 Oeste 0 952.4 0.9 78
2017-10-21 11:00:00 18.1 7 Oeste 13 Sudoeste 0 952.4 1.2 87
2017-10-21 10:00:00 16.8 4 Sur 9 Sur 0 951.8 1 93
2017-10-21 09:00:00 16.2 4 Sudoeste 10 Sudoeste 0 951.5 1.2 94
2017-10-21 08:00:00 16.1 3 Sudoeste 6 Sur 0 951.2 1.1 93
2017-10-21 07:00:00 15.9 3 Sudeste 8 Sur 0 950.8 0.4 92
2017-10-21 06:00:00 15.7 3 Sudoeste 6 Oeste 0 950.3 -0.3 93
2017-10-21 05:00:00 15.5 3 Sur 12 Oeste 0 950.1 -0.5 93
2017-10-21 04:00:00 14.4 6 Sudoeste 12 Sudoeste 0 950.4 -0.6 97
2017-10-21 03:00:00 13.6 4 Sudoeste 6 Sudoeste 0 950.6 -0.3 93
2017-10-21 02:00:00 14.4 0 Calma 9 Oeste 0 950.6 0 90
2017-10-21 01:00:00 15.1 6 Oeste 13 Oeste 0 951 0.7 91
2017-10-21 00:00:00 15.4 5 Sudoeste 11 Oeste 0 950.9 1.3 88
2017-10-20 23:00:00 15.8 3 Oeste 13 Oeste 0 950.6 1.5 84
2017-10-20 22:00:00 16.6 5 Oeste 15 Sudoeste 0 950.3 1.6 80
2017-10-20 21:00:00 17.6 4 Oeste 15 Oeste 0 949.6 1 71
2017-10-20 20:00:00 18.7 8 Sudoeste 13 Sudoeste 0 949.1 0.3 64
2017-10-20 19:00:00 19.9 6 Sudoeste 15 Noroeste 0 948.7 -0.1 56
2017-10-20 18:00:00 20.6 5 Sudoeste 17 Sudoeste 0 948.6 -0.5 52
2017-10-20 17:00:00 20.9 3 Noroeste 26 Oeste 0 948.8 -0.7 57
2017-10-20 16:00:00 20.3 4 Oeste 13 Sur 0 948.8 -1.1 64
2017-10-20 15:00:00 19 5 Sur 13 Sudoeste 0 949.1 -0.4 72
2017-10-20 14:00:00 17.2 4 Noroeste 15 Oeste 0 949.5 0.5 78
2017-10-20 13:00:00 16.6 5 Oeste 12 Noroeste 0 949.9 1.3 81
2017-10-20 12:00:00 15.6 9 Noroeste 16 Oeste 0 949.5 1.9 84
2017-10-20 11:00:00 14.7 7 Noroeste 17 Norte 0 949 1.8 87
2017-10-20 10:00:00 13.6 4 Oeste 12 Noroeste 0 948.6 2.2 92
2017-10-20 09:00:00 12.8 8 Oeste 16 Sudoeste 0 947.6 1.6 93
2017-10-20 08:00:00 12.1 5 Oeste 18 Oeste 0 947.2 1.2 95
2017-10-20 07:00:00 12 5 Sur 13 Oeste 0 946.4 0.2 91
2017-10-20 06:00:00 12.5 6 Sudoeste 12 Oeste 0 946 0.1 91
2017-10-20 05:00:00 12.9 6 Oeste 15 Oeste 0 946 0 88
2017-10-20 04:00:00 13.3 4 Oeste 21 Oeste 0 946.2 0.6 85
2017-10-20 03:00:00 13.4 13 Sudoeste 19 Sudoeste 0 945.9 0.7 83
2017-10-20 02:00:00 14 4 Sudoeste 21 Noroeste 0 946 1.3 76
2017-10-20 01:00:00 14.6 8 Oeste 23 Noroeste 0 945.6 1.2 71
2017-10-20 00:00:00 14.6 5 Oeste 16 Oeste 0 945.2 1.5 69
2017-10-19 23:00:00 14.3 9 Oeste 18 Oeste 0 944.7 1.6 69
2017-10-19 22:00:00 14.3 6 Sudoeste 14 Sudoeste 0 944.4 1.9 68
2017-10-19 21:00:00 14.5 8 Sudoeste 19 Noroeste 0 943.7 2.1 65
2017-10-19 20:00:00 15.5 8 Noroeste 23 Noroeste 0 943.1 1.7 59
2017-10-19 19:00:00 16.6 13 Noroeste 32 Oeste 0 942.5 1.4 54
2017-10-19 18:00:00 17.6 13 Oeste 28 Oeste 0 941.6 -0.1 46
2017-10-19 17:00:00 17.7 14 Noroeste 28 Noroeste 0 941.4 -0.5 49
2017-10-19 16:00:00 18 10 Noroeste 24 Sudoeste 0 941.1 -0.9 50
2017-10-19 15:00:00 17.6 9 Oeste 19 Oeste 0 941.7 -0.4 53
2017-10-19 14:00:00 17.5 9 Oeste 17 Oeste 0 941.9 0 55
2017-10-19 13:00:00 15.6 6 Noroeste 15 Noroeste 0 942 0.5 70
2017-10-19 12:00:00 14.2 6 Oeste 15 Oeste 0 942.1 1.3 78
2017-10-19 11:00:00 12.5 6 Oeste 15 Oeste 0 941.9 1.7 87
2017-10-19 10:00:00 10.3 6 Sudoeste 11 Sudoeste 0 941.5 1.8 98
2017-10-19 09:00:00 9.3 3 Sudoeste 9 Oeste 0 940.8 1.3 100
2017-10-19 08:00:00 7.7 0 Calma 3 Nordeste 0 940.2 0.6 99
2017-10-19 07:00:00 7.9 0 Calma 5 Sudoeste 0 939.7 -0.6 96
2017-10-19 06:00:00 8.3 0 Calma 6 Sur 0 939.5 -1.1 97
2017-10-19 05:00:00 8.8 3 Sudeste 8 Sudoeste 0 939.6 -1.1 95
2017-10-19 04:00:00 9.3 3 Oeste 7 Oeste 0 940.3 -0.7 98
2017-10-19 03:00:00 9.3 2 Sudoeste 4 Este 0 940.6 -0.8 95
2017-10-19 02:00:00 9.7 0 Calma 4 Nordeste 0 940.7 -0.8 94
2017-10-19 01:00:00 10.3 2 Sudeste 4 Nordeste 0 941 -0.1 92
2017-10-19 00:00:00 11.3 2 Sudoeste 8 Sudoeste 0 941.4 0.5 88
2017-10-18 23:00:00 11.7 3 Oeste 11 Sudoeste 0 941.5 0.9 86
2017-10-18 22:00:00 12.3 6 Sudoeste 14 Sudoeste 0 941.1 0.8 83
2017-10-18 21:00:00 13.1 6 Sudoeste 17 Sudoeste 0 940.9 0.9 79
2017-10-18 20:00:00 13.7 7 Oeste 26 Sudoeste 0 940.6 0.6 76
2017-10-18 19:00:00 14 10 Sudoeste 25 Oeste 0 940.3 -0.1 77
2017-10-18 18:00:00 14.4 8 Oeste 26 Sudoeste 0 940 -0.8 75
2017-10-18 17:00:00 14.6 9 Oeste 31 Noroeste 0 940 -1.1 76
2017-10-18 16:00:00 14.6 13 Noroeste 31 Oeste 0.2 940.4 -0.9 84
2017-10-18 15:00:00 14.4 15 Oeste 32 Sudoeste 0.4 940.8 -0.7 86
2017-10-18 14:00:00 14 15 Oeste 28 Sudoeste 0.2 941.1 -0.5 91
2017-10-18 13:00:00 13.6 8 Oeste 17 Oeste 5.8 941.3 -0.5 97
2017-10-18 12:00:00 13.5 8 Noroeste 14 Norte 12.8 941.5 -0.3 96
2017-10-18 11:00:00 13.8 4 Sudeste 11 Sur 2.8 941.6 -0.2 96
2017-10-18 10:00:00 13.5 5 Sur 11 Sur 2 941.8 0.1 97
2017-10-18 09:00:00 13.4 6 Sur 16 Oeste 3.8 941.8 0.5 95
2017-10-18 08:00:00 13.7 6 Oeste 36 Sudoeste 5 941.8 -0.2 92
2017-10-18 07:00:00 15.1 14 Sudoeste 27 Sudoeste 0 941.7 -1.5 82
2017-10-18 06:00:00 14.4 6 Sudeste 14 Sur 0 941.3 -3.3 90
2017-10-18 05:00:00 14.7 8 Sur 16 Sur 0 942 -2.9 87
2017-10-18 04:00:00 15.2 7 Sur 15 Sudeste 2 943.2 -1.5 91
2017-10-18 03:00:00 15.7 6 Sur 15 Sur 0.6 944.6 -1.4 84
2017-10-18 02:00:00 16.3 5 Sudoeste 19 Sudoeste 0 944.9 -0.8 73
2017-10-18 01:00:00 16.7 8 Sudoeste 20 Sudoeste 0 944.7 -1.5 71
2017-10-18 00:00:00 16.4 6 Sur 12 Sur 0 946 -0.2 73
2017-10-17 23:00:00 16.4 7 Sudeste 13 Sudeste 0 945.7 -0.7 71
2017-10-17 22:00:00 16.9 4 Sur 12 Sudoeste 0 946.2 -0.3 67
2017-10-17 21:00:00 17.6 5 Sudeste 14 Sudoeste 0 946.2 -0.9 67
2017-10-17 20:00:00 18.3 6 Sudoeste 15 Sur 0 946.4 -1.4 68
2017-10-17 19:00:00 18.8 4 Sudeste 14 Sur 0 946.5 -0.9 66
2017-10-17 18:00:00 18.8 8 Sur 19 Sur 0.2 947.1 -0.3 72
2017-10-17 17:00:00 18.8 11 Sudoeste 40 Sudoeste 0 947.8 -0.6 73
2017-10-17 16:00:00 23 9 Sur 25 Sudoeste 0 947.4 -2 44
2017-10-17 15:00:00 23.3 7 Sur 13 Sudoeste 0 947.4 -2.6 38
2017-10-17 14:00:00 23.3 8 Sur 18 Oeste 0 948.4 -1.4 39
2017-10-17 13:00:00 20.2 3 Noroeste 12 Noroeste 0 949.4 0.1 46
2017-10-17 12:00:00 16.6 8 Noroeste 15 Noroeste 0 950 0.8 59
2017-10-17 11:00:00 15 10 Noroeste 16 Noroeste 0 949.8 0.9 60
2017-10-17 10:00:00 12.8 5 Nordeste 8 Nordeste 0 949.3 0.4 66
2017-10-17 09:00:00 12.1 5 Nordeste 8 Nordeste 0 949.2 0.2 67
2017-10-17 08:00:00 11.9 3 Nordeste 7 Este 0 948.9 -0.4 69
2017-10-17 07:00:00 11.5 5 Nordeste 8 Nordeste 0 948.9 -0.7 71
2017-10-17 06:00:00 12.1 5 Nordeste 10 Nordeste 0 949 -1.1 65
2017-10-17 05:00:00 12.7 3 Norte 5 Norte 0 949.3 -1 63
2017-10-17 04:00:00 13.4 4 Este 8 Este 0 949.6 -0.9 58
2017-10-17 03:00:00 14.1 3 Nordeste 10 Norte 0 950.1 -0.4 55
2017-10-17 02:00:00 15.1 3 Norte 6 Norte 0 950.3 -0.1 49
2017-10-17 01:00:00 16.1 2 Noroeste 7 Nordeste 0 950.5 0.3 45
2017-10-17 00:00:00 17.4 5 Nordeste 9 Nordeste 0 950.5 0.4 41
2017-10-16 23:00:00 19.2 4 Nordeste 13 Nordeste 0 950.4 0.6 37
2017-10-16 22:00:00 21 9 Este 19 Este 0 950.2 0.6 33
2017-10-16 21:00:00 21.9 6 Este 13 Este 0 950.1 0.6 31
2017-10-16 20:00:00 23.4 3 Nordeste 12 Nordeste 0 949.8 0 27
2017-10-16 19:00:00 25.9 6 Nordeste 19 Nordeste 0 949.6 -0.7 22
2017-10-16 18:00:00 26.7 5 Norte 17 Norte 0 949.5 -1.4 23
2017-10-16 17:00:00 27.5 8 Este 15 Sur 0 949.8 -2.1 21
2017-10-16 16:00:00 28.4 5 Sur 17 Este 0 950.3 -2.2 21
2017-10-16 15:00:00 27.7 5 Nordeste 14 Este 0 950.9 -1.8 25
2017-10-16 14:00:00 26.2 5 Nordeste 15 Este 0 951.9 -1 30
2017-10-16 13:00:00 23.9 6 Este 17 Este 0 952.5 -0.2 38
2017-10-16 12:00:00 20.7 10 Este 18 Nordeste 0 952.7 0.9 48
2017-10-16 11:00:00 17.4 9 Nordeste 17 Nordeste 0 952.9 1.3 64
2017-10-16 10:00:00 13.6 10 Este 16 Este 0 952.7 1.5 82
2017-10-16 09:00:00 12.2 9 Este 14 Este 0 951.8 0.9 89
2017-10-16 08:00:00 12.6 6 Nordeste 13 Nordeste 0 951.6 0.7 88
2017-10-16 07:00:00 12.8 4 Nordeste 10 Norte 0 951.2 0.2 82
2017-10-16 06:00:00 13.4 6 Este 9 Este 0 950.9 0 76
2017-10-16 05:00:00 14.2 2 Nordeste 9 Noroeste 0 950.9 -0.1 68
2017-10-16 04:00:00 14.6 3 Nordeste 11 Nordeste 0 951 -0.1 58
2017-10-16 03:00:00 15.5 4 Nordeste 9 Nordeste 0 950.9 0 52
2017-10-16 02:00:00 16.8 3 Nordeste 4 Nordeste 0 951 0.6 46
2017-10-16 01:00:00 18 2 Nordeste 5 Este 0 951.1 1 43
2017-10-16 00:00:00 19.8 2 Norte 14 Sudoeste 0 950.9 1.2 39
2017-10-15 23:00:00 21.1 2 Sur 10 Oeste 0 950.4 0.9 39
2017-10-15 22:00:00 21.2 5 Sur 9 Sur 0 950.1 0.7 37
2017-10-15 21:00:00 22 5 Sudeste 7 Nordeste 0 949.7 0.4 35
2017-10-15 20:00:00 24 4 Norte 9 Nordeste 0 949.5 -0.2 31
2017-10-15 19:00:00 26.6 5 Nordeste 11 Este 0 949.4 -0.9 28
2017-10-15 18:00:00 28.6 6 Nordeste 18 Este 0 949.3 -1.7 24
2017-10-15 17:00:00 29.3 8 Este 20 Este 0 949.7 -2.3 24
2017-10-15 16:00:00 29.9 9 Este 22 Este 0 950.3 -2.5 26
2017-10-15 15:00:00 28.9 8 Este 15 Este 0 951 -2.3 29
2017-10-15 14:00:00 26.7 9 Este 17 Este 0 952 -1.6 34
2017-10-15 13:00:00 23.9 9 Este 17 Nordeste 0 952.8 -0.6 46
2017-10-15 12:00:00 21.3 8 Nordeste 17 Este 0 953.3 0.3 57
2017-10-15 11:00:00 18.3 8 Nordeste 20 Este 0 953.6 0.9 71
2017-10-15 10:00:00 15.2 10 Nordeste 18 Nordeste 0 953.4 0.8 86
2017-10-15 09:00:00 13.9 8 Este 14 Nordeste 0 953 0.6 90
2017-10-15 08:00:00 13.8 7 Nordeste 11 Nordeste 0 952.7 0.5 85
2017-10-15 07:00:00 14.2 5 Este 8 Nordeste 0 952.6 0.3 74
2017-10-15 06:00:00 15.1 4 Norte 10 Nordeste 0 952.4 0 60
2017-10-15 05:00:00 16.3 7 Este 14 Este 0 952.2 -0.3 47
2017-10-15 04:00:00 17.7 5 Nordeste 14 Nordeste 0 952.3 -0.4 41
2017-10-15 03:00:00 19.8 8 Este 11 Nordeste 0 952.4 -0.2 37
2017-10-15 02:00:00 20.8 4 Norte 10 Nordeste 0 952.5 0.2 34
2017-10-15 01:00:00 21.3 3 Este 7 Nordeste 0 952.7 0.8 35
2017-10-15 00:00:00 21.9 3 Norte 4 Norte 0 952.6 0.8 35
2017-10-14 23:00:00 22.5 4 Este 9 Nordeste 0 952.3 0.9 32
2017-10-14 22:00:00 23.9 5 Noroeste 8 Noroeste 0 951.9 0.8 29
2017-10-14 21:00:00 24 5 Oeste 9 Oeste 0 951.8 0.9 29
2017-10-14 20:00:00 25.9 4 Noroeste 9 Noroeste 0 951.4 0.4 27
2017-10-14 19:00:00 28.5 6 Noroeste 17 Noroeste 0 951.1 -0.3 23
2017-10-14 18:00:00 30 10 Noroeste 18 Noroeste 0 950.9 -0.9 20
2017-10-14 17:00:00 30.2 3 Sudoeste 12 Oeste 0 951 -1.7 22
2017-10-14 16:00:00 30.4 4 Oeste 15 Oeste 0 951.4 -2.1 21
2017-10-14 15:00:00 30.4 5 Oeste 18 Oeste 0 951.8 -1.9 21
2017-10-14 14:00:00 28.9 3 Sudoeste 10 Oeste 0 952.7 -1 24
2017-10-14 13:00:00 26.1 3 Este 7 Norte 0 953.5 0.2 28
2017-10-14 12:00:00 22.7 3 Este 8 Nordeste 0 953.7 0.9 32
2017-10-14 11:00:00 18.3 3 Nordeste 6 Nordeste 0 953.7 1.3 41
2017-10-14 10:00:00 14.3 0 Calma 5 Nordeste 0 953.3 1.1 53
2017-10-14 09:00:00 12.9 3 Este 5 Este 0 952.8 0.7 54
2017-10-14 08:00:00 12.9 0 Calma 3 Nordeste 0 952.4 0.3 53
2017-10-14 07:00:00 13.6 2 Sudeste 3 Noroeste 0 952.2 -0.1 52
2017-10-14 06:00:00 14.3 3 Noroeste 4 Noroeste 0 952.1 -0.5 51
2017-10-14 05:00:00 14.9 0 Calma 4 Sudeste 0 952.1 -0.5 47
2017-10-14 04:00:00 16 0 Calma 4 Este 0 952.3 -0.5 46
2017-10-14 03:00:00 17.1 4 Este 6 Este 0 952.6 -0.1 41
2017-10-14 02:00:00 18.9 2 Noroeste 8 Sudoeste 0 952.6 0.2 39
2017-10-14 01:00:00 20.1 6 Sudoeste 12 Sudoeste 0 952.8 0.7 35
2017-10-14 00:00:00 20.6 7 Sudoeste 13 Sudoeste 0 952.7 1.1 33
2017-10-13 23:00:00 21.3 3 Sudoeste 6 Sudoeste 0 952.4 1.2 32
2017-10-13 22:00:00 23.2 5 Oeste 14 Noroeste 0 952.1 1.1 27
2017-10-13 21:00:00 25 6 Noroeste 15 Noroeste 0 951.6 0.8 25
2017-10-13 20:00:00 26.6 6 Oeste 16 Noroeste 0 951.2 0.4 21
2017-10-13 19:00:00 28.5 11 Noroeste 27 Noroeste 0 951 -0.2 20
2017-10-13 18:00:00 29.6 12 Oeste 26 Noroeste 0 950.8 -1.2 18
2017-10-13 17:00:00 30.6 12 Oeste 27 Noroeste 0 950.8 -2 17
2017-10-13 16:00:00 31.4 9 Oeste 23 Norte 0 951.2 -2.3 17
2017-10-13 15:00:00 30.6 9 Oeste 19 Oeste 0 952 -1.8 18
2017-10-13 14:00:00 29 4 Noroeste 12 Oeste 0 952.8 -1 21
2017-10-13 13:00:00 27.3 2 Oeste 8 Nordeste 0 953.5 0.1 24
2017-10-13 12:00:00 24.6 4 Nordeste 9 Nordeste 0 953.8 0.8 30
2017-10-13 11:00:00 19.6 3 Nordeste 8 Nordeste 0 953.8 0.9 38
2017-10-13 10:00:00 15 2 Nordeste 6 Nordeste 0 953.4 0.7 52
2017-10-13 09:00:00 13.4 3 Noroeste 5 Norte 0 953 0.4 55
2017-10-13 08:00:00 13.6 2 Noroeste 4 Nordeste 0 952.9 0.4 52
2017-10-13 07:00:00 14.5 3 Este 6 Sur 0 952.7 -0.1 51
2017-10-13 06:00:00 14.7 3 Este 4 Sudeste 0 952.6 -0.2 49
2017-10-13 05:00:00 15.6 3 Sur 4 Sudeste 0 952.5 -0.3 48
2017-10-13 04:00:00 16.5 0 Calma 4 Sudeste 0 952.8 0.1 44
2017-10-13 03:00:00 17.4 0 Calma 4 Norte 0 952.8 0.1 43
2017-10-13 02:00:00 18.2 2 Sudoeste 4 Oeste 0 952.8 0.1 44
2017-10-13 01:00:00 19.1 2 Oeste 4 Noroeste 0 952.7 0.2 40
2017-10-13 00:00:00 21 0 Calma 9 Sur 0 952.7 0.5 35
2017-10-12 23:00:00 23.3 6 Sur 14 Sudoeste 0 952.7 0.8 30
2017-10-12 22:00:00 24.4 7 Sur 15 Sur 0 952.5 1 28
2017-10-12 21:00:00 25.4 6 Sur 17 Sudoeste 0 952.2 0.9 26
2017-10-12 20:00:00 27.3 9 Sudoeste 24 Sudoeste 0 951.9 0.6 24
2017-10-12 19:00:00 28.9 8 Oeste 28 Oeste 0 951.5 -0.2 22
2017-10-12 18:00:00 30 14 Oeste 31 Oeste 0 951.3 -1 20
2017-10-12 17:00:00 31 9 Sudoeste 22 Oeste 0 951.3 -1.8 20
2017-10-12 16:00:00 30.7 5 Noroeste 19 Sudoeste 0 951.7 -2.1 19
2017-10-12 15:00:00 30.2 5 Este 15 Oeste 0 952.3 -1.6 19
2017-10-12 14:00:00 28.7 3 Nordeste 8 Este 0 953.1 -0.8 19
2017-10-12 13:00:00 25.7 2 Noroeste 9 Este 0 953.8 0.3 22
2017-10-12 12:00:00 22.9 5 Este 9 Nordeste 0 953.9 1 27
2017-10-12 11:00:00 18.1 3 Norte 9 Nordeste 0 953.9 1.4 33
2017-10-12 10:00:00 14.2 4 Nordeste 9 Nordeste 0 953.5 1.3 42
2017-10-12 09:00:00 13.3 3 Nordeste 9 Nordeste 0 952.9 0.9 43
2017-10-12 08:00:00 13.3 2 Norte 7 Norte 0 952.5 0.8 43
2017-10-12 07:00:00 13.2 3 Nordeste 9 Nordeste 0 952.2 0.6 43
2017-10-12 06:00:00 13.3 3 Este 8 Nordeste 0 952 0.3 43
2017-10-12 05:00:00 14 0 Calma 10 Norte 0 951.7 -0.1 39
2017-10-12 04:00:00 14.5 0 Calma 3 Norte 0 951.6 -0.1 40
2017-10-12 03:00:00 15.4 2 Sudeste 5 Sudeste 0 951.7 0 38
2017-10-12 02:00:00 16.3 2 Sudeste 7 Sur 0 951.8 0.4 39
2017-10-12 01:00:00 16.7 2 Sudeste 3 Sudeste 0 951.7 0.8 37
2017-10-12 00:00:00 18.1 0 Calma 6 Oeste 0 951.7 1.4 35
2017-10-11 23:00:00 19.9 3 Oeste 6 Oeste 0 951.4 1.6 31
2017-10-11 22:00:00 21.6 4 Oeste 8 Oeste 0 950.9 1.5 26
2017-10-11 21:00:00 23.5 4 Oeste 10 Oeste 0 950.3 1.2 22
2017-10-11 20:00:00 25.4 3 Oeste 14 Oeste 0 949.8 0.8 20
2017-10-11 19:00:00 27.4 5 Oeste 20 Noroeste 0 949.4 0.3 18
2017-10-11 18:00:00 28.4 10 Noroeste 27 Noroeste 0 949.1 -0.5 17
2017-10-11 17:00:00 29.1 8 Oeste 26 Oeste 0 949 -1.2 17
2017-10-11 16:00:00 29.8 8 Sudoeste 23 Sur 0 949.1 -1.6 19
2017-10-11 15:00:00 29.2 7 Sudoeste 25 Sudoeste 0 949.6 -1.2 20
2017-10-11 14:00:00 28.7 6 Sur 14 Sur 0 950.2 -0.7 21
2017-10-11 13:00:00 26.2 3 Oeste 6 Sudoeste 0 950.7 0.3 24
2017-10-11 12:00:00 22.8 3 Este 5 Este 0 950.8 0.9 27
2017-10-11 11:00:00 17.9 0 Calma 4 Este 0 950.9 1.5 32
2017-10-11 10:00:00 12.5 0 Calma 3 Norte 0 950.4 1.2 43
2017-10-11 09:00:00 11.2 2 Noroeste 4 Nordeste 0 949.9 0.9 42
2017-10-11 08:00:00 11.4 0 Calma 6 Norte 0 949.4 0.5 42
2017-10-11 07:00:00 11.8 0 Calma 4 Sur 0 949.2 0.3 38
2017-10-11 06:00:00 12.5 0 Calma 5 Sudeste 0 949 0.1 38
2017-10-11 05:00:00 12.9 4 Sudeste 5 Sudeste 0 948.9 0 38
2017-10-11 04:00:00 13.7 0 Calma 5 Sudeste 0 948.9 0 35
2017-10-11 03:00:00 14.1 3 Sudeste 6 Norte 0 948.9 0.2 33
2017-10-11 02:00:00 15.2 4 Sudoeste 7 Sudoeste 0 948.9 0.5 33
2017-10-11 01:00:00 16.2 4 Oeste 8 Sur 0 948.9 1.1 30
2017-10-11 00:00:00 17.6 4 Sur 8 Sudoeste 0 948.7 1.3 28
2017-10-10 23:00:00 19.3 5 Noroeste 15 Noroeste 0 948.4 1.3 22
2017-10-10 22:00:00 19.5 4 Sur 7 Sudeste 0 947.8 1.1 26
2017-10-10 21:00:00 21.1 5 Sudeste 8 Este 0 947.4 0.9 22
2017-10-10 20:00:00 23.5 3 Este 5 Este 0 947.1 0.3 22
2017-10-10 19:00:00 26.3 4 Noroeste 9 Oeste 0 946.7 -0.5 16
2017-10-10 18:00:00 27.7 3 Oeste 13 Sur 0 946.5 -1.1 12
2017-10-10 17:00:00 28.4 4 Nordeste 16 Oeste 0 946.8 -1.6 12
2017-10-10 16:00:00 29.2 3 Este 13 Noroeste 0 947.2 -1.8 13
2017-10-10 15:00:00 29.1 5 Este 9 Oeste 0 947.6 -1.5 14
2017-10-10 14:00:00 26.5 3 Oeste 7 Noroeste 0 948.4 -0.8 20
2017-10-10 13:00:00 24.4 3 Nordeste 10 Sudeste 0 949 0 25
2017-10-10 12:00:00 20.5 3 Este 10 Este 0 949.1 0.8 34
2017-10-10 11:00:00 16.4 3 Este 8 Este 0 949.2 1.4 50
2017-10-10 10:00:00 11.7 6 Este 11 Este 0 949 1.3 69
2017-10-10 09:00:00 10.5 3 Nordeste 6 Norte 0 948.3 1 73
2017-10-10 08:00:00 10.2 0 Calma 6 Nordeste 0 947.8 0.6 65
2017-10-10 07:00:00 10.9 4 Nordeste 9 Nordeste 0 947.7 0.5 54
2017-10-10 06:00:00 11.9 3 Nordeste 13 Nordeste 0 947.3 0 35
2017-10-10 05:00:00 12.6 2 Norte 12 Este 0 947.2 -0.1 31
2017-10-10 04:00:00 13.3 4 Este 5 Oeste 0 947.2 -0.2 36
2017-10-10 03:00:00 14.6 4 Sudoeste 7 Sudoeste 0 947.3 -0.2 34
2017-10-10 02:00:00 15.7 2 Norte 7 Noroeste 0 947.3 -0.1 31
2017-10-10 01:00:00 16.3 4 Norte 10 Norte 0 947.4 0.4 29
2017-10-10 00:00:00 17.8 4 Norte 14 Noroeste 0 947.5 1 29
2017-10-09 23:00:00 18.3 3 Noroeste 5 Noroeste 0 947.4 1.2 27
2017-10-09 22:00:00 19.8 4 Noroeste 12 Nordeste 0 947 1.1 22
2017-10-09 21:00:00 21.2 3 Este 4 Oeste 0 946.5 0.5 25
2017-10-09 20:00:00 24.1 3 Sudoeste 10 Oeste 0 946.2 -0.1 19
2017-10-09 19:00:00 26.4 3 Noroeste 9 Noroeste 0 945.9 -0.7 15
2017-10-09 18:00:00 28 5 Sudoeste 13 Oeste 0 946 -1.1 14
2017-10-09 17:00:00 28.6 5 Sudoeste 14 Oeste 0 946.3 -1.8 13
2017-10-09 16:00:00 29.3 4 Sudeste 16 Oeste 0 946.6 -1.9 15
2017-10-09 15:00:00 29.4 6 Oeste 14 Oeste 0 947.1 -1.7 20
2017-10-09 14:00:00 27.6 6 Noroeste 10 Noroeste 0 948.1 -0.8 23
2017-10-09 13:00:00 25.3 3 Este 9 Nordeste 0 948.5 -0.2 28
2017-10-09 12:00:00 22.4 3 Nordeste 9 Nordeste 0 948.8 0.6 33
2017-10-09 11:00:00 18.1 4 Nordeste 10 Nordeste 0 948.9 1.3 41
2017-10-09 10:00:00 13.2 2 Norte 6 Noroeste 0 948.7 1.4 58
2017-10-09 09:00:00 11.6 0 Calma 5 Nordeste 0 948.2 1 62
2017-10-09 08:00:00 11.3 2 Norte 4 Este 0 947.6 0.4 58
2017-10-09 07:00:00 11.8 4 Este 5 Este 0 947.3 -0.1 56
2017-10-09 06:00:00 12.6 0 Calma 4 Este 0 947.2 -0.3 53
2017-10-09 05:00:00 13.4 2 Sur 6 Sudeste 0 947.2 -0.4 55
2017-10-09 04:00:00 13.8 2 Sudeste 4 Sudeste 0 947.4 -0.3 54
2017-10-09 03:00:00 14.6 2 Sudeste 3 Sudeste 0 947.5 -0.2 53
2017-10-09 02:00:00 15 2 Norte 5 Nordeste 0 947.6 0.1 48
2017-10-09 01:00:00 16.4 2 Norte 5 Norte 0 947.7 0.3 44
2017-10-09 00:00:00 17.4 0 Calma 6 Nordeste 0 947.7 0.7 42
2017-10-08 23:00:00 18.7 0 Calma 8 Oeste 0 947.5 0.8 40
2017-10-08 22:00:00 20.1 3 Este 7 Sudeste 0 947.4 0.9 35
2017-10-08 21:00:00 21.8 5 Sudeste 9 Sur 0 947 0.6 31
2017-10-08 20:00:00 23.7 5 Sudeste 10 Sudeste 0 946.7 -0.2 30
2017-10-08 19:00:00 25.7 2 Sur 10 Sur 0 946.5 -0.8 28
2017-10-08 18:00:00 26.8 5 Sudeste 11 Sur 0 946.4 -1.6 26
2017-10-08 17:00:00 27.2 3 Noroeste 13 Noroeste 0 946.9 -1.9 25
2017-10-08 16:00:00 27.5 3 Norte 12 Noroeste 0 947.3 -2.1 27
2017-10-08 15:00:00 27 5 Noroeste 11 Oeste 0 948 -1.6 29
2017-10-08 14:00:00 25.9 4 Este 9 Sur 0 948.8 -0.9 39
2017-10-08 13:00:00 24.2 4 Sudeste 9 Este 0 949.4 0 46
2017-10-08 12:00:00 21.6 4 Sur 10 Sudeste 0 949.6 0.7 57
2017-10-08 11:00:00 17.5 5 Este 10 Este 0 949.7 1.1 76
2017-10-08 10:00:00 13.1 2 Norte 5 Este 0 949.4 1 92
2017-10-08 09:00:00 12.2 0 Calma 4 Este 0 948.9 0.8 90
2017-10-08 08:00:00 12.5 0 Calma 6 Nordeste 0 948.6 0.6 93
2017-10-08 07:00:00 12.9 3 Este 7 Este 0 948.4 0.4 93
2017-10-08 06:00:00 13.4 4 Este 11 Este 0 948.1 -0.3 89
2017-10-08 05:00:00 14.1 8 Este 15 Este 0 948 -0.4 88
2017-10-08 04:00:00 14.6 8 Nordeste 14 Nordeste 0 948 -0.4 85
2017-10-08 03:00:00 15.2 6 Este 15 Nordeste 0 948.4 0.2 82
2017-10-08 02:00:00 15.9 7 Nordeste 13 Este 0 948.4 0.8 77
2017-10-08 01:00:00 17 8 Este 18 Nordeste 0 948.4 1.1 72
2017-10-08 00:00:00 18.1 8 Nordeste 15 Nordeste 0 948.2 1.2 62
2017-10-07 23:00:00 18.8 7 Nordeste 15 Nordeste 0 947.6 1 39
2017-10-07 22:00:00 19.6 4 Nordeste 9 Norte 0 947.3 1.1 35
2017-10-07 21:00:00 21.6 4 Este 8 Nordeste 0 947 0.9 31
2017-10-07 20:00:00 24.2 6 Este 10 Este 0 946.6 0.1 28
2017-10-07 19:00:00 25.8 5 Nordeste 17 Nordeste 0 946.2 -0.8 25
2017-10-07 18:00:00 26.6 6 Nordeste 18 Nordeste 0 946.1 -1.5 24
2017-10-07 17:00:00 27 4 Norte 17 Norte 0 946.5 -1.9 24
2017-10-07 16:00:00 27.4 8 Este 17 Nordeste 0 947 -1.7 25
2017-10-07 15:00:00 26.6 7 Nordeste 23 Este 0 947.6 -1.5 29
2017-10-07 14:00:00 25 10 Nordeste 24 Nordeste 0 948.4 -0.7 31
2017-10-07 13:00:00 23.3 9 Este 26 Nordeste 0 948.7 -0.1 36
2017-10-07 12:00:00 21.3 9 Nordeste 23 Nordeste 0 949.1 0.9 42
2017-10-07 11:00:00 18.7 9 Este 16 Este 0 949.1 1.2 40
2017-10-07 10:00:00 13.8 5 Este 8 Nordeste 0 948.8 1.1 46
2017-10-07 09:00:00 12.1 4 Nordeste 7 Este 0 948.2 0.7 49
2017-10-07 08:00:00 12.8 5 Este 11 Sudeste 0 947.9 0.5 47
2017-10-07 07:00:00 13.8 5 Sudeste 9 Sudeste 0 947.7 0 44
2017-10-07 06:00:00 14.3 3 Este 7 Este 0 947.5 -0.4 42
2017-10-07 05:00:00 15 4 Este 7 Sudeste 0 947.4 -0.5 41
2017-10-07 04:00:00 15.7 5 Sudeste 9 Nordeste 0 947.7 -0.1 37
2017-10-07 03:00:00 16.6 4 Nordeste 9 Nordeste 0 947.9 0.3 32
2017-10-07 02:00:00 17.3 4 Nordeste 9 Norte 0 947.9 1 25
2017-10-07 01:00:00 17.5 3 Este 9 Nordeste 0 947.8 1.2 25
2017-10-07 00:00:00 18.3 3 Norte 10 Nordeste 0 947.6 1.2 27
2017-10-06 23:00:00 19.6 4 Este 9 Nordeste 0 946.9 1 23
2017-10-06 22:00:00 21.7 5 Nordeste 11 Norte 0 946.6 0.8 18
2017-10-06 21:00:00 23.2 4 Nordeste 9 Este 0 946.4 0.4 19
2017-10-06 20:00:00 26.4 4 Nordeste 17 Nordeste 0 945.9 -0.3 16
2017-10-06 19:00:00 28.7 8 Norte 24 Nordeste 0 945.8 -0.7 13
2017-10-06 18:00:00 29.7 10 Nordeste 23 Nordeste 0 946 -1 13
2017-10-06 17:00:00 30.3 8 Nordeste 26 Nordeste 0 946.2 -1.5 14
2017-10-06 16:00:00 31.2 10 Nordeste 30 Nordeste 0 946.5 -1.9 12
2017-10-06 15:00:00 31.4 11 Nordeste 23 Norte 0 947 -1.6 13
2017-10-06 14:00:00 29.9 5 Norte 18 Nordeste 0 947.7 -0.7 19
2017-10-06 13:00:00 28.5 6 Nordeste 19 Norte 0 948.4 0.3 20
2017-10-06 12:00:00 26 5 Nordeste 12 Nordeste 0 948.6 0.9 30
2017-10-06 11:00:00 22.6 3 Sudeste 7 Nordeste 0 948.4 1 39
2017-10-06 10:00:00 16.8 4 Nordeste 7 Nordeste 0 948.1 0.9 55
2017-10-06 09:00:00 14.6 0 Calma 5 Nordeste 0 947.7 0.7 60
2017-10-06 08:00:00 15 0 Calma 6 Sudeste 0 947.4 0.3 56
2017-10-06 07:00:00 15.3 0 Calma 3 Norte 0 947.2 -0.3 53
2017-10-06 06:00:00 16.7 3 Sudoeste 8 Sudoeste 0 947 -0.9 52
2017-10-06 05:00:00 16.7 5 Sudoeste 8 Sudoeste 0 947.1 -1.1 53
2017-10-06 04:00:00 16.9 4 Sudoeste 5 Sudoeste 0 947.5 -0.8 52
2017-10-06 03:00:00 17.5 3 Sudoeste 5 Oeste 0 947.9 -0.4 52
2017-10-06 02:00:00 18 3 Oeste 4 Sudoeste 0 948.2 -0.1 50
2017-10-06 01:00:00 18.8 2 Oeste 7 Oeste 0 948.3 0.1 50
2017-10-06 00:00:00 19.6 4 Oeste 5 Oeste 0 948.3 0.2 50
2017-10-05 23:00:00 20.7 2 Sudoeste 4 Sur 0 948.3 0.5 47
2017-10-05 22:00:00 22.1 3 Sudeste 3 Sur 0 948.2 0.4 42
2017-10-05 21:00:00 24.1 2 Sudeste 7 Sudeste 0 948.1 0.2 36
2017-10-05 20:00:00 26.3 5 Sudeste 13 Este 0 947.8 -0.4 31
2017-10-05 19:00:00 27.9 8 Este 17 Nordeste 0 947.8 -1 28
2017-10-05 18:00:00 28.7 5 Nordeste 19 Este 0 947.9 -1.7 27
2017-10-05 17:00:00 29.3 5 Este 23 Este 0 948.2 -2.2 27
2017-10-05 16:00:00 29.9 9 Nordeste 23 Norte 0 948.8 -2.3 26
2017-10-05 15:00:00 30.3 11 Este 23 Este 0 949.6 -2 26
2017-10-05 14:00:00 29.1 6 Este 12 Este 0 950.4 -1.1 32
2017-10-05 13:00:00 26.8 3 Sudeste 8 Noroeste 0 951.1 -0.4 41
2017-10-05 12:00:00 24.3 2 Este 6 Sudeste 0 951.6 0.3 47
2017-10-05 11:00:00 20.4 3 Este 8 Nordeste 0 951.5 0.5 55
2017-10-05 10:00:00 16 3 Nordeste 6 Nordeste 0 951.5 0.9 69
2017-10-05 09:00:00 14.4 0 Calma 6 Nordeste 0 951.3 0.9 74
2017-10-05 08:00:00 14.4 3 Nordeste 7 Norte 0 951 0.6 72
2017-10-05 07:00:00 15.1 3 Nordeste 11 Nordeste 0 950.6 0.3 69
2017-10-05 06:00:00 16.1 4 Nordeste 9 Norte 0 950.4 0 66
2017-10-05 05:00:00 17.3 3 Norte 7 Norte 0 950.4 -0.1 63
2017-10-05 04:00:00 18.7 2 Norte 9 Sudeste 0 950.3 -0.4 60
2017-10-05 03:00:00 19.8 6 Sudeste 10 Sudeste 0 950.4 -0.5 59
2017-10-05 02:00:00 20.8 0 Calma 12 Sudeste 0 950.5 0.1 54
2017-10-05 01:00:00 21.7 7 Este 15 Sudeste 0 950.7 0.9 51
2017-10-05 00:00:00 22.2 7 Este 13 Este 0 950.9 1.6 45
2017-10-04 23:00:00 24.3 12 Este 22 Este 0 950.4 1.5 40
2017-10-04 22:00:00 24.8 9 Este 20 Este 0 949.8 1.1 38
2017-10-04 21:00:00 25.4 9 Nordeste 17 Nordeste 0 949.3 0.7 35
2017-10-04 20:00:00 27.3 6 Este 12 Nordeste 0 948.9 0.1 31
2017-10-04 19:00:00 29.1 7 Este 19 Nordeste 0 948.7 -0.5 26
2017-10-04 18:00:00 30 6 Norte 21 Nordeste 0 948.6 -0.9 25
2017-10-04 17:00:00 30.9 9 Nordeste 17 Este 0 948.8 -1.3 26
2017-10-04 16:00:00 31.3 6 Sudeste 16 Este 0 949.2 -1.5 29
2017-10-04 15:00:00 30.9 4 Sur 14 Sur 0 949.5 -1.4 30
2017-10-04 14:00:00 29.2 3 Noroeste 11 Nordeste 0 950.1 -0.6 34
2017-10-04 13:00:00 27.7 4 Sudeste 8 Sudeste 0 950.7 0.3 37
2017-10-04 12:00:00 24.7 3 Este 7 Este 0 950.9 0.9 45
2017-10-04 11:00:00 21.6 3 Sudeste 8 Este 0 950.7 1.5 56
2017-10-04 10:00:00 17.5 6 Este 11 Este 0 950.4 1.7 77
2017-10-04 09:00:00 16.2 5 Nordeste 10 Este 0 950 1.6 82
2017-10-04 08:00:00 16.2 3 Nordeste 8 Nordeste 0 949.2 0.9 80
2017-10-04 07:00:00 16.7 3 Nordeste 9 Este 0 948.7 0.4 76
2017-10-04 06:00:00 17.1 5 Este 16 Este 0 948.4 -0.1 70
2017-10-04 05:00:00 17.5 6 Nordeste 12 Este 0 948.3 -0.1 59
2017-10-04 04:00:00 18.2 4 Norte 12 Norte 0 948.3 -0.3 55
2017-10-04 03:00:00 18.9 0 Calma 3 Norte 0 948.5 -0.1 57
2017-10-04 02:00:00 19.6 3 Sudeste 7 Este 0 948.4 0.3 53
2017-10-04 01:00:00 20.5 0 Calma 4 Noroeste 0 948.6 0.9 51
2017-10-04 00:00:00 21.6 3 Noroeste 6 Oeste 0 948.6 1.3 48
2017-10-03 23:00:00 22.8 2 Este 6 Sur 0 948.1 1.1 45
2017-10-03 22:00:00 24.3 3 Este 8 Sur 0 947.7 0.8 40
2017-10-03 21:00:00 26 5 Sur 9 Sur 0 947.3 0.2 37
2017-10-03 20:00:00 27.5 6 Sudeste 9 Sudeste 0 947 -0.2 34
2017-10-03 19:00:00 28.7 6 Sudeste 12 Sudeste 0 946.9 -0.8 32
2017-10-03 18:00:00 29.4 6 Sudeste 13 Sudeste 0 947.1 -1.3 30
2017-10-03 17:00:00 30.1 6 Sudeste 13 Sudeste 0 947.2 -2.4 30
2017-10-03 16:00:00 30.8 8 Sur 14 Este 0 947.7 -2.5 30
2017-10-03 15:00:00 30.7 4 Sur 15 Sur 0 948.4 -2.3 32
2017-10-03 14:00:00 29.1 4 Sur 10 Sudoeste 0 949.6 -1.1 34
2017-10-03 13:00:00 27.4 3 Este 9 Sudeste 0 950.2 -0.3 39
2017-10-03 12:00:00 24.9 4 Sudeste 9 Este 0 950.7 0.3 45
2017-10-03 11:00:00 20.7 3 Este 9 Este 0 950.7 0.8 57
2017-10-03 10:00:00 16.1 5 Nordeste 13 Nordeste 0 950.5 0.9 73
2017-10-03 09:00:00 14.4 4 Nordeste 9 Nordeste 0 950.4 0.8 76
2017-10-03 08:00:00 14.6 5 Este 10 Nordeste 0 949.9 0.4 73
2017-10-03 07:00:00 15.3 4 Nordeste 11 Nordeste 0 949.6 -0.1 70
2017-10-03 06:00:00 16.1 2 Nordeste 7 Norte 0 949.6 -0.4 69
2017-10-03 05:00:00 16.5 3 Este 8 Norte 0 949.5 -0.6 66
2017-10-03 04:00:00 17.3 0 Calma 5 Nordeste 0 949.7 -0.6 65
2017-10-03 03:00:00 18.2 3 Norte 7 Norte 0 950 -0.3 62
2017-10-03 02:00:00 18.9 0 Calma 5 Norte 0 950.1 -0.1 58
2017-10-03 01:00:00 19.7 3 Este 11 Este 0 950.3 0.3 57
2017-10-03 00:00:00 20.7 3 Norte 6 Noroeste 0 950.3 0.5 54
2017-10-02 23:00:00 21.6 3 Norte 4 Norte 0 950.2 0.6 53
2017-10-02 22:00:00 23.1 0 Calma 4 Sudeste 0 950 0.8 48
2017-10-02 21:00:00 24.9 3 Sudeste 11 Este 0 949.8 0.8 43
2017-10-02 20:00:00 26.7 9 Este 24 Nordeste 0 949.6 0.2 39
2017-10-02 19:00:00 28 12 Nordeste 29 Nordeste 0 949.2 -0.5 37
2017-10-02 18:00:00 28.3 13 Nordeste 27 Nordeste 0 949 -1.5 36
2017-10-02 17:00:00 28.7 13 Nordeste 32 Este 0 949.4 -1.8 35
2017-10-02 16:00:00 28.9 14 Este 33 Nordeste 0 949.7 -1.8 35
2017-10-02 15:00:00 28.6 16 Nordeste 35 Nordeste 0 950.5 -1.6 35
2017-10-02 14:00:00 27.8 13 Nordeste 34 Nordeste 0 951.2 -0.9 35
2017-10-02 13:00:00 26.4 15 Nordeste 32 Este 0 951.5 -0.2 38
2017-10-02 12:00:00 24.4 11 Nordeste 27 Este 0 952.1 0.8 44
2017-10-02 11:00:00 21.4 3 Este 8 Este 0 952.1 0.9 52
2017-10-02 10:00:00 17.1 4 Este 9 Este 0 951.7 0.7 64
2017-10-02 09:00:00 15.3 0 Calma 8 Norte 0 951.3 0.5 71
2017-10-02 08:00:00 15.7 5 Nordeste 7 Nordeste 0 951.2 0.5 68
2017-10-02 07:00:00 15.8 4 Este 7 Sudeste 0 951 0.3 68
2017-10-02 06:00:00 16.1 3 Este 6 Nordeste 0 950.8 -0.1 67
2017-10-02 05:00:00 16.9 2 Nordeste 10 Nordeste 0 950.7 0 64
2017-10-02 04:00:00 17.3 4 Nordeste 8 Nordeste 0 950.7 0 60
2017-10-02 03:00:00 18 3 Nordeste 10 Nordeste 0 950.9 0.2 58
2017-10-02 02:00:00 18.4 5 Nordeste 12 Nordeste 0 950.7 0.2 56
2017-10-02 01:00:00 19.1 6 Nordeste 9 Nordeste 0 950.7 0.6 53
2017-10-02 00:00:00 19.8 3 Norte 9 Nordeste 0 950.7 1 50
2017-10-01 23:00:00 20.7 3 Norte 6 Este 0 950.5 1 48
2017-10-01 22:00:00 22 4 Nordeste 12 Nordeste 0 950.1 0.9 44
2017-10-01 21:00:00 23.2 5 Nordeste 14 Nordeste 0 949.7 0.9 41
2017-10-01 20:00:00 24.6 7 Norte 23 Norte 0 949.5 1 38
2017-10-01 19:00:00 25.8 9 Nordeste 28 Nordeste 0 949.2 0.5 33
2017-10-01 18:00:00 27.1 9 Nordeste 24 Nordeste 0 948.8 -0.4 32
2017-10-01 17:00:00 27.3 10 Nordeste 27 Este 0 948.5 -1.2 35
2017-10-01 16:00:00 27.7 10 Este 30 Este 0 948.7 -1.1 35
2017-10-01 15:00:00 26.8 9 Nordeste 23 Nordeste 0 949.2 -0.7 39
2017-10-01 14:00:00 25.8 13 Nordeste 26 Nordeste 0 949.7 0 44
2017-10-01 13:00:00 24 9 Nordeste 19 Este 0 949.8 0.6 53
2017-10-01 12:00:00 21.8 8 Este 19 Este 0 949.9 1.1 60
2017-10-01 11:00:00 19.1 8 Este 20 Nordeste 0 949.7 1.4 70
2017-10-01 10:00:00 17.5 8 Este 17 Este 0 949.2 1.5 77
2017-10-01 09:00:00 16.4 7 Nordeste 14 Este 0 948.8 1.4 77
2017-10-01 08:00:00 16.3 7 Nordeste 14 Nordeste 0 948.3 1.2 72
2017-10-01 07:00:00 16.5 4 Nordeste 13 Nordeste 0 947.7 0.8 52
2017-10-01 06:00:00 16.7 3 Norte 8 Nordeste 0 947.4 0.3 52
2017-10-01 05:00:00 17.5 3 Oeste 7 Noroeste 0 947.1 0 50
2017-10-01 04:00:00 18.3 4 Noroeste 9 Noroeste 0 946.9 -0.1 49
2017-10-01 03:00:00 18.7 4 Oeste 6 Oeste 0 947.1 0.3 47
2017-10-01 02:00:00 20.1 4 Oeste 10 Oeste 0 947.1 0.3 41
2017-10-01 01:00:00 20.2 0 Calma 5 Sudoeste 0 947 0.4 46
2017-10-01 00:00:00 21.3 3 Sudoeste 6 Oeste 0 946.8 0.4 42
2017-09-30 23:00:00 22.6 5 Oeste 9 Sudoeste 0 946.8 0.9 37
2017-09-30 22:00:00 23.8 3 Oeste 11 Noroeste 0 946.6 1.1 35
2017-09-30 21:00:00 25.4 7 Noroeste 22 Oeste 0 946.4 1.1 32
2017-09-30 20:00:00 26.8 10 Noroeste 25 Oeste 0 945.9 0.3 30
2017-09-30 19:00:00 28 10 Noroeste 25 Oeste 0 945.5 -0.5 28
2017-09-30 18:00:00 29 9 Oeste 21 Oeste 0 945.3 -1.5 28
2017-09-30 17:00:00 29 6 Oeste 26 Noroeste 0 945.6 -2.2 28
2017-09-30 16:00:00 29.9 8 Noroeste 21 Oeste 0 946 -2.3 26
2017-09-30 15:00:00 29.8 8 Sudoeste 15 Oeste 0 946.8 -2 27
2017-09-30 14:00:00 27.8 5 Oeste 15 Oeste 0 947.8 -1.1 30
2017-09-30 13:00:00 24.9 4 Oeste 11 Sudoeste 0 948.3 -0.5 33
2017-09-30 12:00:00 22.7 3 Sudoeste 8 Noroeste 0 948.8 0.2 38
2017-09-30 11:00:00 20.2 2 Oeste 7 Noroeste 0 948.9 0.5 43
2017-09-30 10:00:00 16 3 Este 6 Este 0 948.8 0.5 54
2017-09-30 09:00:00 14.4 4 Este 8 Este 0 948.6 0.6 59
2017-09-30 08:00:00 14.1 4 Nordeste 8 Nordeste 0 948.4 0.5 58
2017-09-30 07:00:00 15.4 3 Norte 8 Norte 0 948.3 0.3 56
2017-09-30 06:00:00 15.6 0 Calma 6 Nordeste 0 948 -0.3 56
2017-09-30 05:00:00 16.3 3 Este 5 Este 0 947.9 -0.6 54
2017-09-30 04:00:00 16.9 2 Este 4 Este 0 948 -0.5 52
2017-09-30 03:00:00 17.7 0 Calma 6 Sudoeste 0 948.3 -0.4 49
2017-09-30 02:00:00 18.7 4 Sudoeste 10 Sur 0 948.5 -0.2 49
2017-09-30 01:00:00 18.8 2 Este 4 Noroeste 0 948.5 0 49
2017-09-30 00:00:00 19.8 0 Calma 3 Norte 0 948.7 0.5 45
2017-09-29 23:00:00 21.1 0 Calma 5 Sudeste 0 948.7 0.7 44
2017-09-29 22:00:00 22.2 4 Sudeste 5 Sudeste 0 948.5 0.9 42
2017-09-29 21:00:00 23.9 3 Este 6 Nordeste 0 948.2 0.5 37
2017-09-29 20:00:00 26.1 5 Nordeste 10 Este 0 948 0 33
2017-09-29 19:00:00 27.6 8 Este 18 Este 0 947.6 -0.9 29
2017-09-29 18:00:00 28.4 5 Nordeste 21 Este 0 947.7 -1.4 27
2017-09-29 17:00:00 29 6 Este 18 Este 0 948 -1.9 26
2017-09-29 16:00:00 29.9 7 Este 18 Este 0 948.5 -2.1 26
2017-09-29 15:00:00 29.6 7 Sudeste 19 Este 0 949.1 -2 27
2017-09-29 14:00:00 27.8 8 Este 15 Este 0 949.9 -1.2 35
2017-09-29 13:00:00 26 8 Este 15 Este 0 950.6 -0.1 41
2017-09-29 12:00:00 23.3 7 Este 13 Este 0 951.1 0.7 48
2017-09-29 11:00:00 20.1 4 Nordeste 12 Nordeste 0 951.1 1.3 58
2017-09-29 10:00:00 16 6 Nordeste 12 Este 0 950.7 1.1 73
2017-09-29 09:00:00 14.4 4 Este 6 Este 0 950.4 1 77
2017-09-29 08:00:00 14.4 3 Este 5 Nordeste 0 949.8 0.4 78
2017-09-29 07:00:00 14.6 0 Calma 6 Este 0 949.6 0 73
2017-09-29 06:00:00 14.9 4 Nordeste 10 Nordeste 0 949.4 -0.4 68
2017-09-29 05:00:00 15.8 6 Nordeste 13 Nordeste 0 949.4 -0.5 62
2017-09-29 04:00:00 17 7 Nordeste 12 Nordeste 0 949.6 -0.3 58
2017-09-29 03:00:00 17.7 0 Calma 5 Noroeste 0 949.8 0 55
2017-09-29 02:00:00 18.4 3 Norte 5 Noroeste 0 949.9 0.1 48
2017-09-29 01:00:00 19.2 4 Norte 6 Norte 0 949.9 0.3 45
2017-09-29 00:00:00 20.3 5 Este 10 Nordeste 0 949.8 0.6 42
2017-09-28 23:00:00 21.4 8 Nordeste 13 Nordeste 0 949.8 0.8 36
2017-09-28 22:00:00 22.3 4 Nordeste 9 Nordeste 0 949.6 0.8 34
2017-09-28 21:00:00 23.9 4 Nordeste 9 Nordeste 0 949.2 0.4 32
2017-09-28 20:00:00 26 3 Nordeste 13 Nordeste 0 949 0 28
2017-09-28 19:00:00 27.4 6 Este 18 Este 0 948.8 -0.7 25
2017-09-28 18:00:00 28.3 8 Nordeste 23 Este 0 948.8 -1.4 24
2017-09-28 17:00:00 28.9 6 Nordeste 20 Nordeste 0 949 -1.8 25
2017-09-28 16:00:00 29 7 Nordeste 18 Nordeste 0 949.5 -1.7 26
2017-09-28 15:00:00 27.4 7 Este 15 Nordeste 0 950.2 -1.4 30
2017-09-28 14:00:00 26.8 8 Este 17 Este 0 950.8 -1 36
2017-09-28 13:00:00 25.8 7 Este 15 Este 0 951.2 -0.2 42
2017-09-28 12:00:00 24.1 6 Nordeste 15 Este 0 951.6 0.6 48
2017-09-28 11:00:00 21.1 3 Nordeste 9 Nordeste 0 951.8 1.3 60
2017-09-28 10:00:00 16.8 5 Nordeste 10 Nordeste 0 951.4 1.3 80
2017-09-28 09:00:00 14.8 4 Nordeste 9 Este 0 951 1.1 83
2017-09-28 08:00:00 15 7 Este 10 Este 0 950.5 1 79
2017-09-28 07:00:00 15.4 5 Este 12 Nordeste 0 950.1 0.3 67
2017-09-28 06:00:00 16.7 6 Nordeste 12 Nordeste 0 949.9 0 56
2017-09-28 05:00:00 17.5 4 Noroeste 9 Noroeste 0 949.5 -0.4 55
2017-09-28 04:00:00 17.1 3 Oeste 5 Oeste 0 949.8 0.1 55
2017-09-28 03:00:00 17.8 0 Calma 4 Sur 0 949.9 0.3 55
2017-09-28 02:00:00 18.2 3 Sur 6 Sur 0 949.9 0.5 54
2017-09-28 01:00:00 19.1 2 Nordeste 5 Este 0 949.7 0.7 50
2017-09-28 00:00:00 20.1 3 Oeste 6 Noroeste 0 949.6 1.2 49
2017-09-27 23:00:00 21.1 3 Oeste 7 Noroeste 0 949.4 1.4 46
2017-09-27 22:00:00 22.2 4 Noroeste 7 Noroeste 0 949 1.1 43
2017-09-27 21:00:00 23.7 6 Noroeste 10 Noroeste 0 948.4 0.8 39
2017-09-27 20:00:00 24.7 6 Noroeste 15 Noroeste 0 948 0.4 36
2017-09-27 19:00:00 25.7 6 Noroeste 14 Oeste 0 947.9 0.1 35
2017-09-27 18:00:00 26.2 6 Oeste 14 Oeste 0 947.6 -0.4 32
2017-09-27 17:00:00 26.7 7 Oeste 24 Oeste 0 947.6 -0.9 32
2017-09-27 16:00:00 27.3 8 Oeste 19 Sudoeste 0 947.8 -1.2 30
2017-09-27 15:00:00 28 6 Oeste 19 Oeste 0 948 -1.5 29
2017-09-27 14:00:00 26 6 Oeste 18 Noroeste 0 948.5 -1 35
2017-09-27 13:00:00 24.9 6 Oeste 14 Noroeste 0 949 -0.1 39
2017-09-27 12:00:00 21.8 5 Oeste 9 Sudoeste 0 949.5 0.9 48
2017-09-27 11:00:00 18.1 3 Norte 8 Nordeste 0 949.5 1.5 63
2017-09-27 10:00:00 14.5 3 Nordeste 6 Este 0 949.1 1.3 84
2017-09-27 09:00:00 13.3 3 Este 5 Este 0 948.6 1.3 91
2017-09-27 08:00:00 12.7 3 Norte 9 Nordeste 0 948 0.7 83
2017-09-27 07:00:00 13.2 3 Este 9 Sur 0 947.8 0.6 79
2017-09-27 06:00:00 14 6 Este 13 Este 0 947.3 -0.2 82
2017-09-27 05:00:00 14.6 6 Nordeste 12 Nordeste 0 947.3 -0.1 73
2017-09-27 04:00:00 15.1 6 Nordeste 12 Nordeste 0 947.2 -0.2 54
2017-09-27 03:00:00 15.6 5 Este 13 Nordeste 0 947.5 0.2 49
2017-09-27 02:00:00 16.2 2 Norte 5 Oeste 0 947.4 0.2 45
2017-09-27 01:00:00 17.5 3 Noroeste 6 Oeste 0 947.4 0.5 43
2017-09-27 00:00:00 18.2 4 Norte 8 Nordeste 0 947.3 0.9 40
2017-09-26 23:00:00 19.5 3 Sudeste 13 Sur 0 947.2 1.1 38
2017-09-26 22:00:00 20.7 2 Este 5 Este 0 946.9 1.1 37
2017-09-26 21:00:00 22.4 4 Este 7 Sudeste 0 946.4 0.8 32
2017-09-26 20:00:00 24.4 4 Sudeste 6 Sudeste 0 946.1 0.3 29
2017-09-26 19:00:00 25.7 3 Sur 10 Noroeste 0 945.8 -0.5 27
2017-09-26 18:00:00 26.7 5 Sudoeste 14 Sur 0 945.6 -1.1 25
2017-09-26 17:00:00 27.4 6 Sudeste 13 Sudeste 0 945.8 -1.6 25
2017-09-26 16:00:00 27.3 6 Norte 18 Norte 0 946.3 -1.6 24
2017-09-26 15:00:00 27.7 6 Sudeste 19 Este 0 946.7 -1.5 26
2017-09-26 14:00:00 26 4 Nordeste 18 Este 0 947.4 -0.8 35
2017-09-26 13:00:00 24.2 7 Este 17 Este 0 947.9 -0.1 43
2017-09-26 12:00:00 22 6 Nordeste 17 Este 0 948.2 0.4 46
2017-09-26 11:00:00 19 9 Este 21 Nordeste 0 948.2 0.7 51
2017-09-26 10:00:00 15.1 4 Este 11 Este 0 948 0.9 47
2017-09-26 09:00:00 12.4 3 Este 13 Nordeste 0 947.8 0.8 51
2017-09-26 08:00:00 12.2 4 Nordeste 6 Nordeste 0 947.5 0.3 47
2017-09-26 07:00:00 12.6 2 Sur 4 Sudeste 0 947.1 0 47
2017-09-26 06:00:00 13.2 3 Sudeste 4 Sudeste 0 947 -0.5 44
2017-09-26 05:00:00 14.2 2 Noroeste 6 Noroeste 0 947.2 -0.5 41
2017-09-26 04:00:00 15.4 2 Noroeste 7 Oeste 0 947.1 -0.6 39
2017-09-26 03:00:00 17.2 3 Oeste 8 Oeste 0 947.5 -0.5 34
2017-09-26 02:00:00 18.2 5 Oeste 9 Oeste 0 947.7 -0.1 31
2017-09-26 01:00:00 18.9 3 Oeste 9 Noroeste 0 947.7 0.2 29
2017-09-26 00:00:00 19.7 4 Oeste 9 Sudoeste 0 948 0.9 30
2017-09-25 23:00:00 20.9 3 Oeste 13 Sudoeste 0 947.8 1 28
2017-09-25 22:00:00 22 8 Oeste 17 Sudoeste 0 947.5 0.9 27
2017-09-25 21:00:00 23.6 6 Oeste 22 Sudoeste 0 947.1 0.8 28
2017-09-25 20:00:00 25.2 11 Oeste 27 Sudoeste 0 946.8 0.3 27
2017-09-25 19:00:00 26.6 14 Noroeste 31 Oeste 0 946.6 -0.4 18
2017-09-25 18:00:00 27.8 18 Oeste 38 Oeste 0 946.3 -1 17
2017-09-25 17:00:00 28.7 18 Oeste 37 Noroeste 0 946.5 -1.6 17
2017-09-25 16:00:00 29.4 16 Oeste 34 Sudoeste 0 947 -1.5 27
2017-09-25 15:00:00 29.1 13 Oeste 37 Oeste 0 947.3 -1.5 31
2017-09-25 14:00:00 28.8 12 Oeste 29 Sudoeste 0 948.1 -0.8 26
2017-09-25 13:00:00 27.5 10 Oeste 24 Sudoeste 0 948.5 -0.4 26
2017-09-25 12:00:00 26 8 Oeste 21 Sudoeste 0 948.8 0.2 30
2017-09-25 11:00:00 23.3 10 Oeste 21 Oeste 0 948.9 0.8 30
2017-09-25 10:00:00 19.5 4 Sur 13 Sudoeste 0 948.9 1.2 37
2017-09-25 09:00:00 17.7 5 Sudoeste 14 Sudoeste 0 948.6 0.9 44
2017-09-25 08:00:00 17.5 4 Oeste 13 Sudoeste 0 948.1 0.4 45
2017-09-25 07:00:00 17.7 6 Oeste 11 Oeste 0 947.7 -0.2 45
2017-09-25 06:00:00 17.6 6 Oeste 11 Sudoeste 0 947.7 -0.5 46
2017-09-25 05:00:00 17.6 2 Sudoeste 5 Sudoeste 0 947.7 -0.7 46
2017-09-25 04:00:00 18.8 3 Sudoeste 8 Oeste 0 947.9 -0.7 43
2017-09-25 03:00:00 20.1 3 Oeste 14 Oeste 0 948.2 -0.3 38
2017-09-25 02:00:00 21 7 Sudoeste 12 Sudoeste 0 948.4 -0.1 37
2017-09-25 01:00:00 22 4 Oeste 14 Sudoeste 0 948.6 0.3 35
2017-09-25 00:00:00 22.3 6 Sudoeste 12 Sudoeste 0 948.5 0.8 34
2017-09-24 23:00:00 23.3 4 Oeste 15 Oeste 0 948.5 1.1 32
2017-09-24 22:00:00 24.9 7 Noroeste 16 Oeste 0 948.3 1 30
2017-09-24 21:00:00 26.4 10 Noroeste 18 Oeste 0 947.7 0.4 27
2017-09-24 20:00:00 27.8 7 Oeste 18 Oeste 0 947.4 0 26
2017-09-24 19:00:00 28.9 8 Oeste 21 Sudoeste 0 947.3 -0.6 24
2017-09-24 18:00:00 29.7 10 Oeste 21 Noroeste 0 947.3 -1 23
2017-09-24 17:00:00 30.3 11 Noroeste 27 Noroeste 0 947.4 -1.5 23
2017-09-24 16:00:00 30.8 8 Oeste 16 Sudoeste 0 947.9 -1.5 23
2017-09-24 15:00:00 31 6 Sudoeste 21 Sudoeste 0 948.3 -1.6 23
2017-09-24 14:00:00 29.9 8 Sudoeste 18 Oeste 0 948.9 -1 24
2017-09-24 13:00:00 28.3 4 Sudoeste 10 Sudoeste 0 949.4 -0.2 31
2017-09-24 12:00:00 25.4 3 Sudoeste 8 Oeste 0 949.9 0.8 36
2017-09-24 11:00:00 21.5 2 Noroeste 5 Este 0 949.9 1.2 40
2017-09-24 10:00:00 16.8 2 Este 5 Nordeste 0 949.6 1.5 50
2017-09-24 09:00:00 14.2 0 Calma 4 Nordeste 0 949.1 1.1 56
2017-09-24 08:00:00 14.1 3 Este 5 Sudeste 0 948.7 0.9 55
2017-09-24 07:00:00 14.7 0 Calma 5 Noroeste 0 948.1 0.2 53
2017-09-24 06:00:00 15.4 0 Calma 5 Noroeste 0 948 -0.2 51
2017-09-24 05:00:00 16 2 Sur 6 Sudeste 0 947.8 -0.5 48
2017-09-24 04:00:00 17.1 0 Calma 6 Noroeste 0 947.9 -0.1 46
2017-09-24 03:00:00 18.1 2 Noroeste 6 Noroeste 0 948.2 0.2 42
2017-09-24 02:00:00 18.6 2 Norte 5 Oeste 0 948.3 0.7 40
2017-09-24 01:00:00 19.4 4 Nordeste 15 Este 0 948 0.7 37
2017-09-24 00:00:00 20.4 2 Sudoeste 16 Oeste 0 948 1.2 36
2017-09-23 23:00:00 20.5 3 Sudeste 5 Sudeste 0 947.6 1.2 37
2017-09-23 22:00:00 21.9 2 Sudeste 6 Sudeste 0 947.3 1.2 34
2017-09-23 21:00:00 23.6 3 Este 6 Sudeste 0 946.8 0.6 31
2017-09-23 20:00:00 26 4 Este 10 Sudeste 0 946.4 0.1 26
2017-09-23 19:00:00 27.3 4 Sudeste 15 Sudeste 0 946.1 -0.7 26
2017-09-23 18:00:00 28.1 4 Sur 15 Sudeste 0 946.2 -1.2 25
2017-09-23 17:00:00 29.1 3 Nordeste 13 Sudeste 0 946.3 -1.7 26
2017-09-23 16:00:00 29.3 7 Sudeste 12 Oeste 0 946.8 -1.4 26
2017-09-23 15:00:00 28.6 4 Sudeste 12 Sudeste 0 947.4 -0.9 29
2017-09-23 14:00:00 27.6 3 Oeste 12 Noroeste 0 948 -0.3 34
2017-09-23 13:00:00 25.5 4 Sur 10 Oeste 0 948.2 0.5 39
2017-09-23 12:00:00 23.8 3 Oeste 9 Oeste 0 948.3 0.9 45
2017-09-23 11:00:00 20.1 3 Este 9 Este 0 948.3 1.4 60
2017-09-23 10:00:00 16.3 3 Norte 8 Nordeste 0 947.7 1.3 76
2017-09-23 09:00:00 14.5 3 Nordeste 6 Este 0 947.4 1 83
2017-09-23 08:00:00 14.4 4 Nordeste 5 Nordeste 0 946.9 0.6 82
2017-09-23 07:00:00 15.1 3 Nordeste 8 Nordeste 0 946.4 0 80
2017-09-23 06:00:00 15.8 5 Nordeste 11 Nordeste 0 946.4 -0.1 78
2017-09-23 05:00:00 16.6 7 Nordeste 14 Este 0 946.3 0 75
2017-09-23 04:00:00 17.2 6 Nordeste 16 Nordeste 0 946.4 0.3 70
2017-09-23 03:00:00 18 8 Nordeste 18 Este 0 946.5 0.7 64
2017-09-23 02:00:00 19.1 9 Este 23 Nordeste 0 946.3 0.7 61
2017-09-23 01:00:00 20 10 Nordeste 20 Nordeste 0 946.1 0.9 56
2017-09-23 00:00:00 21.3 6 Nordeste 13 Norte 0 945.8 1 41